sensor_id;sensor_type;location;lat;lon;timestamp;temperature;humidity
48019;DHT22;33786;48.690;9.562;2024-03-02T00:01:35;3.20;99.90
48019;DHT22;33786;48.690;9.562;2024-03-02T00:04:04;3.30;99.90
48019;DHT22;33786;48.690;9.562;2024-03-02T00:06:33;3.30;99.90
48019;DHT22;33786;48.690;9.562;2024-03-02T00:09:00;3.30;99.90
48019;DHT22;33786;48.690;9.562;2024-03-02T00:11:28;3.30;99.90
48019;DHT22;33786;48.690;9.562;2024-03-02T00:13:55;3.40;99.90
48019;DHT22;33786;48.690;9.562;2024-03-02T00:16:22;3.40;99.90
48019;DHT22;33786;48.690;9.562;2024-03-02T00:18:50;3.40;99.90
48019;DHT22;33786;48.690;9.562;2024-03-02T00:21:18;3.40;99.90
48019;DHT22;33786;48.690;9.562;2024-03-02T00:23:48;3.40;99.90
48019;DHT22;33786;48.690;9.562;2024-03-02T00:26:16;3.40;99.90
48019;DHT22;33786;48.690;9.562;2024-03-02T00:28:42;3.30;99.90
48019;DHT22;33786;48.690;9.562;2024-03-02T00:31:12;3.40;99.90
48019;DHT22;33786;48.690;9.562;2024-03-02T00:33:44;3.40;99.90
48019;DHT22;33786;48.690;9.562;2024-03-02T00:36:16;3.70;99.90
48019;DHT22;33786;48.690;9.562;2024-03-02T00:38:50;3.50;99.90
48019;DHT22;33786;48.690;9.562;2024-03-02T00:46:19;3.50;99.90
48019;DHT22;33786;48.690;9.562;2024-03-02T00:49:10;3.50;99.90
48019;DHT22;33786;48.690;9.562;2024-03-02T00:51:39;3.50;99.90
48019;DHT22;33786;48.690;9.562;2024-03-02T00:54:09;3.50;99.90
48019;DHT22;33786;48.690;9.562;2024-03-02T00:56:37;3.50;99.90
48019;DHT22;33786;48.690;9.562;2024-03-02T00:59:04;3.50;99.90
48019;DHT22;33786;48.690;9.562;2024-03-02T01:01:31;3.50;99.90
48019;DHT22;33786;48.690;9.562;2024-03-02T01:03:58;3.50;99.90
48019;DHT22;33786;48.690;9.562;2024-03-02T01:06:25;3.60;99.90
48019;DHT22;33786;48.690;9.562;2024-03-02T01:08:52;3.50;99.90
48019;DHT22;33786;48.690;9.562;2024-03-02T01:11:20;3.60;99.90
48019;DHT22;33786;48.690;9.562;2024-03-02T01:13:50;3.70;99.90
48019;DHT22;33786;48.690;9.562;2024-03-02T01:16:17;3.70;99.90
48019;DHT22;33786;48.690;9.562;2024-03-02T01:18:44;3.70;99.90
48019;DHT22;33786;48.690;9.562;2024-03-02T01:21:11;3.70;99.90
48019;DHT22;33786;48.690;9.562;2024-03-02T01:23:38;3.80;99.90
48019;DHT22;33786;48.690;9.562;2024-03-02T01:26:05;3.80;99.90
48019;DHT22;33786;48.690;9.562;2024-03-02T01:28:32;3.80;99.90
48019;DHT22;33786;48.690;9.562;2024-03-02T01:30:59;3.70;99.90
48019;DHT22;33786;48.690;9.562;2024-03-02T01:33:26;3.80;99.90
48019;DHT22;33786;48.690;9.562;2024-03-02T01:35:53;3.70;99.90
48019;DHT22;33786;48.690;9.562;2024-03-02T01:38:20;3.80;99.90
48019;DHT22;33786;48.690;9.562;2024-03-02T01:40:47;3.80;99.90
48019;DHT22;33786;48.690;9.562;2024-03-02T01:43:14;3.90;99.90
48019;DHT22;33786;48.690;9.562;2024-03-02T01:45:41;3.80;99.90
48019;DHT22;33786;48.690;9.562;2024-03-02T01:48:08;3.90;99.90
48019;DHT22;33786;48.690;9.562;2024-03-02T01:50:35;3.80;99.90
48019;DHT22;33786;48.690;9.562;2024-03-02T01:53:02;3.90;99.90
48019;DHT22;33786;48.690;9.562;2024-03-02T01:55:30;3.90;99.90
48019;DHT22;33786;48.690;9.562;2024-03-02T01:57:57;3.90;99.90
48019;DHT22;33786;48.690;9.562;2024-03-02T02:00:25;3.80;99.90
48019;DHT22;33786;48.690;9.562;2024-03-02T02:02:54;3.80;99.90
48019;DHT22;33786;48.690;9.562;2024-03-02T02:05:21;3.90;99.90
48019;DHT22;33786;48.690;9.562;2024-03-02T02:07:49;3.90;99.90
48019;DHT22;33786;48.690;9.562;2024-03-02T02:10:16;3.90;99.90
48019;DHT22;33786;48.690;9.562;2024-03-02T02:12:43;3.90;99.90
48019;DHT22;33786;48.690;9.562;2024-03-02T02:15:29;3.90;99.90
48019;DHT22;33786;48.690;9.562;2024-03-02T02:17:57;3.90;99.90
48019;DHT22;33786;48.690;9.562;2024-03-02T02:20:25;3.80;99.90
48019;DHT22;33786;48.690;9.562;2024-03-02T02:22:59;3.80;99.90
48019;DHT22;33786;48.690;9.562;2024-03-02T02:25:27;3.80;99.90
48019;DHT22;33786;48.690;9.562;2024-03-02T02:27:54;3.70;99.90
48019;DHT22;33786;48.690;9.562;2024-03-02T02:30:24;3.80;99.90
48019;DHT22;33786;48.690;9.562;2024-03-02T02:32:51;3.80;99.90
48019;DHT22;33786;48.690;9.562;2024-03-02T02:35:18;3.70;99.90
48019;DHT22;33786;48.690;9.562;2024-03-02T02:37:46;3.70;99.90
48019;DHT22;33786;48.690;9.562;2024-03-02T02:40:14;3.70;99.90
48019;DHT22;33786;48.690;9.562;2024-03-02T02:42:41;3.70;99.90
48019;DHT22;33786;48.690;9.562;2024-03-02T02:45:08;3.70;99.90
48019;DHT22;33786;48.690;9.562;2024-03-02T02:47:35;3.60;99.90
48019;DHT22;33786;48.690;9.562;2024-03-02T02:50:03;3.60;99.90
48019;DHT22;33786;48.690;9.562;2024-03-02T02:52:34;3.50;99.90
48019;DHT22;33786;48.690;9.562;2024-03-02T02:55:04;3.50;99.90
48019;DHT22;33786;48.690;9.562;2024-03-02T02:57:32;3.50;99.90
48019;DHT22;33786;48.690;9.562;2024-03-02T03:02:47;3.40;99.90
48019;DHT22;33786;48.690;9.562;2024-03-02T03:05:16;3.30;99.90
48019;DHT22;33786;48.690;9.562;2024-03-02T03:07:43;3.30;99.90
48019;DHT22;33786;48.690;9.562;2024-03-02T03:10:12;3.30;99.90
48019;DHT22;33786;48.690;9.562;2024-03-02T03:12:40;3.30;99.90
48019;DHT22;33786;48.690;9.562;2024-03-02T03:15:10;3.30;99.90
48019;DHT22;33786;48.690;9.562;2024-03-02T03:17:36;3.20;99.90
48019;DHT22;33786;48.690;9.562;2024-03-02T03:20:05;3.30;99.90
48019;DHT22;33786;48.690;9.562;2024-03-02T03:22:37;3.30;99.90
48019;DHT22;33786;48.690;9.562;2024-03-02T03:25:04;3.20;99.90
48019;DHT22;33786;48.690;9.562;2024-03-02T03:27:31;3.10;99.90
48019;DHT22;33786;48.690;9.562;2024-03-02T03:29:58;3.10;99.90
48019;DHT22;33786;48.690;9.562;2024-03-02T03:32:25;3.10;99.90
48019;DHT22;33786;48.690;9.562;2024-03-02T03:34:52;3.00;99.90
48019;DHT22;33786;48.690;9.562;2024-03-02T03:37:19;3.00;99.90
48019;DHT22;33786;48.690;9.562;2024-03-02T03:39:46;3.00;99.90
48019;DHT22;33786;48.690;9.562;2024-03-02T03:42:13;3.00;99.90
48019;DHT22;33786;48.690;9.562;2024-03-02T03:44:40;2.90;99.90
48019;DHT22;33786;48.690;9.562;2024-03-02T03:47:08;2.90;99.90
48019;DHT22;33786;48.690;9.562;2024-03-02T03:49:35;2.80;99.90
48019;DHT22;33786;48.690;9.562;2024-03-02T03:52:02;2.90;99.90
48019;DHT22;33786;48.690;9.562;2024-03-02T03:54:30;2.80;99.90
48019;DHT22;33786;48.690;9.562;2024-03-02T03:56:57;2.80;99.90
48019;DHT22;33786;48.690;9.562;2024-03-02T03:59:24;2.70;99.90
48019;DHT22;33786;48.690;9.562;2024-03-02T04:01:51;2.70;99.90
48019;DHT22;33786;48.690;9.562;2024-03-02T04:04:18;2.60;99.90
48019;DHT22;33786;48.690;9.562;2024-03-02T04:06:45;2.60;99.90
48019;DHT22;33786;48.690;9.562;2024-03-02T04:09:12;2.60;99.90
48019;DHT22;33786;48.690;9.562;2024-03-02T04:11:39;2.60;99.90
48019;DHT22;33786;48.690;9.562;2024-03-02T04:14:06;2.50;99.90
48019;DHT22;33786;48.690;9.562;2024-03-02T04:16:33;3.00;99.90
48019;DHT22;33786;48.690;9.562;2024-03-02T04:19:00;2.50;99.90
48019;DHT22;33786;48.690;9.562;2024-03-02T04:21:27;2.50;99.90
48019;DHT22;33786;48.690;9.562;2024-03-02T04:23:54;2.50;99.90
48019;DHT22;33786;48.690;9.562;2024-03-02T04:26:24;2.40;99.90
48019;DHT22;33786;48.690;9.562;2024-03-02T04:28:52;2.40;99.90
48019;DHT22;33786;48.690;9.562;2024-03-02T04:31:20;2.30;99.90
48019;DHT22;33786;48.690;9.562;2024-03-02T04:33:47;2.30;99.90
48019;DHT22;33786;48.690;9.562;2024-03-02T04:36:15;2.30;99.90
48019;DHT22;33786;48.690;9.562;2024-03-02T04:38:42;2.30;99.90
48019;DHT22;33786;48.690;9.562;2024-03-02T04:41:09;2.30;99.90
48019;DHT22;33786;48.690;9.562;2024-03-02T04:43:36;2.20;99.90
48019;DHT22;33786;48.690;9.562;2024-03-02T04:46:02;2.10;99.90
48019;DHT22;33786;48.690;9.562;2024-03-02T04:48:29;2.10;99.90
48019;DHT22;33786;48.690;9.562;2024-03-02T04:50:56;2.00;99.90
48019;DHT22;33786;48.690;9.562;2024-03-02T04:53:23;2.10;99.90
48019;DHT22;33786;48.690;9.562;2024-03-02T04:55:51;2.10;99.90
48019;DHT22;33786;48.690;9.562;2024-03-02T04:58:20;2.10;99.90
48019;DHT22;33786;48.690;9.562;2024-03-02T05:00:47;2.10;99.90
48019;DHT22;33786;48.690;9.562;2024-03-02T05:03:14;2.10;99.90
48019;DHT22;33786;48.690;9.562;2024-03-02T05:05:41;2.00;99.90
48019;DHT22;33786;48.690;9.562;2024-03-02T05:08:08;2.00;99.90
48019;DHT22;33786;48.690;9.562;2024-03-02T05:10:35;2.00;99.90
48019;DHT22;33786;48.690;9.562;2024-03-02T05:13:03;2.00;99.90
48019;DHT22;33786;48.690;9.562;2024-03-02T05:15:30;2.00;99.90
48019;DHT22;33786;48.690;9.562;2024-03-02T05:17:57;1.90;99.90
48019;DHT22;33786;48.690;9.562;2024-03-02T05:20:26;1.90;99.90
48019;DHT22;33786;48.690;9.562;2024-03-02T05:22:53;1.90;99.90
48019;DHT22;33786;48.690;9.562;2024-03-02T05:25:20;1.80;99.90
48019;DHT22;33786;48.690;9.562;2024-03-02T05:27:47;1.90;99.90
48019;DHT22;33786;48.690;9.562;2024-03-02T05:30:14;1.80;99.90
48019;DHT22;33786;48.690;9.562;2024-03-02T05:32:41;1.80;99.90
48019;DHT22;33786;48.690;9.562;2024-03-02T05:35:08;1.90;99.90
48019;DHT22;33786;48.690;9.562;2024-03-02T05:37:37;1.80;99.90
48019;DHT22;33786;48.690;9.562;2024-03-02T05:40:04;1.70;99.90
48019;DHT22;33786;48.690;9.562;2024-03-02T05:42:32;1.70;99.90
48019;DHT22;33786;48.690;9.562;2024-03-02T05:44:59;1.70;99.90
48019;DHT22;33786;48.690;9.562;2024-03-02T05:47:26;1.70;99.90
48019;DHT22;33786;48.690;9.562;2024-03-02T05:49:54;1.70;99.90
48019;DHT22;33786;48.690;9.562;2024-03-02T05:52:21;1.60;99.90
48019;DHT22;33786;48.690;9.562;2024-03-02T05:54:48;1.60;99.90
48019;DHT22;33786;48.690;9.562;2024-03-02T05:57:16;1.60;99.90
48019;DHT22;33786;48.690;9.562;2024-03-02T05:59:44;1.60;99.90
48019;DHT22;33786;48.690;9.562;2024-03-02T06:02:11;1.60;99.90
48019;DHT22;33786;48.690;9.562;2024-03-02T06:04:38;1.60;99.90
48019;DHT22;33786;48.690;9.562;2024-03-02T06:07:05;1.60;99.90
48019;DHT22;33786;48.690;9.562;2024-03-02T06:09:32;1.60;99.90
48019;DHT22;33786;48.690;9.562;2024-03-02T06:11:59;1.70;99.90
48019;DHT22;33786;48.690;9.562;2024-03-02T06:14:26;1.70;99.90
48019;DHT22;33786;48.690;9.562;2024-03-02T06:16:53;1.70;99.90
48019;DHT22;33786;48.690;9.562;2024-03-02T06:19:19;1.80;99.90
48019;DHT22;33786;48.690;9.562;2024-03-02T06:21:46;1.70;99.90
48019;DHT22;33786;48.690;9.562;2024-03-02T06:24:13;1.70;99.90
48019;DHT22;33786;48.690;9.562;2024-03-02T06:26:40;1.80;99.90
48019;DHT22;33786;48.690;9.562;2024-03-02T06:29:07;1.80;99.90
48019;DHT22;33786;48.690;9.562;2024-03-02T06:31:34;1.80;99.90
48019;DHT22;33786;48.690;9.562;2024-03-02T06:34:01;1.90;99.90
48019;DHT22;33786;48.690;9.562;2024-03-02T06:36:30;1.90;99.90
48019;DHT22;33786;48.690;9.562;2024-03-02T06:38:57;2.00;99.90
48019;DHT22;33786;48.690;9.562;2024-03-02T06:41:24;2.10;99.90
48019;DHT22;33786;48.690;9.562;2024-03-02T06:43:51;2.10;99.90
48019;DHT22;33786;48.690;9.562;2024-03-02T06:46:26;2.20;99.90
48019;DHT22;33786;48.690;9.562;2024-03-02T06:48:53;2.20;99.90
48019;DHT22;33786;48.690;9.562;2024-03-02T06:51:20;2.30;99.90
48019;DHT22;33786;48.690;9.562;2024-03-02T06:53:47;2.40;99.90
48019;DHT22;33786;48.690;9.562;2024-03-02T06:56:14;2.40;99.90
48019;DHT22;33786;48.690;9.562;2024-03-02T06:58:40;2.60;99.90
48019;DHT22;33786;48.690;9.562;2024-03-02T07:01:09;2.60;99.90
48019;DHT22;33786;48.690;9.562;2024-03-02T07:03:36;2.60;99.90
48019;DHT22;33786;48.690;9.562;2024-03-02T07:06:04;2.70;99.90
48019;DHT22;33786;48.690;9.562;2024-03-02T07:08:31;2.80;99.90
48019;DHT22;33786;48.690;9.562;2024-03-02T07:10:58;2.90;99.90
48019;DHT22;33786;48.690;9.562;2024-03-02T07:13:25;3.00;99.90
48019;DHT22;33786;48.690;9.562;2024-03-02T07:15:52;3.10;99.90
48019;DHT22;33786;48.690;9.562;2024-03-02T07:18:39;3.30;99.90
48019;DHT22;33786;48.690;9.562;2024-03-02T07:21:11;3.50;99.90
48019;DHT22;33786;48.690;9.562;2024-03-02T07:23:38;3.70;99.90
48019;DHT22;33786;48.690;9.562;2024-03-02T07:26:05;3.90;99.90
48019;DHT22;33786;48.690;9.562;2024-03-02T07:28:36;4.10;99.90
48019;DHT22;33786;48.690;9.562;2024-03-02T07:31:04;4.40;99.90
48019;DHT22;33786;48.690;9.562;2024-03-02T07:33:31;4.40;99.90
48019;DHT22;33786;48.690;9.562;2024-03-02T07:35:59;4.50;99.90
48019;DHT22;33786;48.690;9.562;2024-03-02T07:38:31;4.90;99.90
48019;DHT22;33786;48.690;9.562;2024-03-02T07:40:59;5.20;99.90
48019;DHT22;33786;48.690;9.562;2024-03-02T07:43:27;5.60;99.90
48019;DHT22;33786;48.690;9.562;2024-03-02T07:45:54;6.00;99.90
48019;DHT22;33786;48.690;9.562;2024-03-02T07:48:21;6.40;99.90
48019;DHT22;33786;48.690;9.562;2024-03-02T07:50:48;6.80;99.90
48019;DHT22;33786;48.690;9.562;2024-03-02T07:53:15;7.20;99.90
48019;DHT22;33786;48.690;9.562;2024-03-02T07:55:42;7.80;99.90
48019;DHT22;33786;48.690;9.562;2024-03-02T07:58:09;8.60;99.90
48019;DHT22;33786;48.690;9.562;2024-03-02T08:00:39;9.80;99.90
48019;DHT22;33786;48.690;9.562;2024-03-02T08:03:07;10.70;99.90
48019;DHT22;33786;48.690;9.562;2024-03-02T08:05:38;11.70;99.90
48019;DHT22;33786;48.690;9.562;2024-03-02T08:08:05;12.50;99.40
48019;DHT22;33786;48.690;9.562;2024-03-02T08:10:32;13.20;98.90
48019;DHT22;33786;48.690;9.562;2024-03-02T08:13:00;13.90;97.60
48019;DHT22;33786;48.690;9.562;2024-03-02T08:15:27;14.80;96.70
48019;DHT22;33786;48.690;9.562;2024-03-02T08:17:54;15.40;96.00
48019;DHT22;33786;48.690;9.562;2024-03-02T08:20:21;17.00;94.20
48019;DHT22;33786;48.690;9.562;2024-03-02T08:22:48;18.60;91.30
48019;DHT22;33786;48.690;9.562;2024-03-02T08:25:15;18.50;90.60
48019;DHT22;33786;48.690;9.562;2024-03-02T08:27:43;18.20;90.30
48019;DHT22;33786;48.690;9.562;2024-03-02T08:30:10;17.80;91.40
48019;DHT22;33786;48.690;9.562;2024-03-02T08:32:37;17.40;91.50
48019;DHT22;33786;48.690;9.562;2024-03-02T08:35:06;17.80;90.60
48019;DHT22;33786;48.690;9.562;2024-03-02T08:37:33;17.20;91.10
48019;DHT22;33786;48.690;9.562;2024-03-02T08:40:00;17.20;90.80
48019;DHT22;33786;48.690;9.562;2024-03-02T08:42:28;16.70;91.20
48019;DHT22;33786;48.690;9.562;2024-03-02T08:44:55;17.00;91.60
48019;DHT22;33786;48.690;9.562;2024-03-02T08:47:22;16.90;90.90
48019;DHT22;33786;48.690;9.562;2024-03-02T08:49:49;16.90;91.40
48019;DHT22;33786;48.690;9.562;2024-03-02T08:52:15;16.80;90.50
48019;DHT22;33786;48.690;9.562;2024-03-02T08:54:42;16.50;91.30
48019;DHT22;33786;48.690;9.562;2024-03-02T08:57:09;16.20;90.90
48019;DHT22;33786;48.690;9.562;2024-03-02T08:59:36;16.20;91.30
48019;DHT22;33786;48.690;9.562;2024-03-02T09:02:03;16.30;92.00
48019;DHT22;33786;48.690;9.562;2024-03-02T09:04:30;16.10;91.50
48019;DHT22;33786;48.690;9.562;2024-03-02T09:07:01;15.90;91.90
48019;DHT22;33786;48.690;9.562;2024-03-02T09:09:28;15.90;93.00
48019;DHT22;33786;48.690;9.562;2024-03-02T09:11:55;16.20;92.00
48019;DHT22;33786;48.690;9.562;2024-03-02T09:14:24;16.30;92.40
48019;DHT22;33786;48.690;9.562;2024-03-02T09:16:51;15.90;92.70
48019;DHT22;33786;48.690;9.562;2024-03-02T09:19:18;16.00;93.00
48019;DHT22;33786;48.690;9.562;2024-03-02T09:21:45;15.60;93.10
48019;DHT22;33786;48.690;9.562;2024-03-02T09:24:12;15.40;93.30
48019;DHT22;33786;48.690;9.562;2024-03-02T09:26:44;15.80;93.80
48019;DHT22;33786;48.690;9.562;2024-03-02T09:29:11;16.60;92.40
48019;DHT22;33786;48.690;9.562;2024-03-02T09:31:41;16.60;92.20
48019;DHT22;33786;48.690;9.562;2024-03-02T09:34:08;17.70;90.50
48019;DHT22;33786;48.690;9.562;2024-03-02T09:36:36;18.20;89.10
48019;DHT22;33786;48.690;9.562;2024-03-02T09:39:03;19.00;88.10
48019;DHT22;33786;48.690;9.562;2024-03-02T09:41:32;19.90;84.70
48019;DHT22;33786;48.690;9.562;2024-03-02T09:44:00;20.90;82.90
48019;DHT22;33786;48.690;9.562;2024-03-02T09:46:27;21.70;79.00
48019;DHT22;33786;48.690;9.562;2024-03-02T09:48:54;22.20;78.20
48019;DHT22;33786;48.690;9.562;2024-03-02T09:51:21;22.40;78.00
48019;DHT22;33786;48.690;9.562;2024-03-02T09:53:49;22.60;75.20
48019;DHT22;33786;48.690;9.562;2024-03-02T09:56:16;22.50;75.00
48019;DHT22;33786;48.690;9.562;2024-03-02T09:58:44;22.90;74.60
48019;DHT22;33786;48.690;9.562;2024-03-02T10:01:11;22.90;72.70
48019;DHT22;33786;48.690;9.562;2024-03-02T10:03:38;22.40;74.30
48019;DHT22;33786;48.690;9.562;2024-03-02T10:06:24;23.80;73.60
48019;DHT22;33786;48.690;9.562;2024-03-02T10:08:51;24.80;71.00
48019;DHT22;33786;48.690;9.562;2024-03-02T10:11:35;25.30;68.90
48019;DHT22;33786;48.690;9.562;2024-03-02T10:16:31;23.70;70.20
48019;DHT22;33786;48.690;9.562;2024-03-02T10:18:58;23.20;69.30
48019;DHT22;33786;48.690;9.562;2024-03-02T10:21:34;23.20;70.50
48019;DHT22;33786;48.690;9.562;2024-03-02T10:24:08;24.70;66.20
48019;DHT22;33786;48.690;9.562;2024-03-02T10:26:34;25.20;65.70
48019;DHT22;33786;48.690;9.562;2024-03-02T10:29:01;26.30;65.50
48019;DHT22;33786;48.690;9.562;2024-03-02T10:31:29;26.60;63.90
48019;DHT22;33786;48.690;9.562;2024-03-02T10:33:57;27.60;61.80
48019;DHT22;33786;48.690;9.562;2024-03-02T10:36:25;27.80;60.30
48019;DHT22;33786;48.690;9.562;2024-03-02T10:38:52;27.00;60.00
48019;DHT22;33786;48.690;9.562;2024-03-02T10:41:27;25.40;59.90
48019;DHT22;33786;48.690;9.562;2024-03-02T10:43:55;25.40;61.30
48019;DHT22;33786;48.690;9.562;2024-03-02T10:46:29;25.80;61.00
48019;DHT22;33786;48.690;9.562;2024-03-02T10:48:57;26.70;59.50
48019;DHT22;33786;48.690;9.562;2024-03-02T10:51:33;25.90;59.20
48019;DHT22;33786;48.690;9.562;2024-03-02T10:54:01;25.90;59.40
48019;DHT22;33786;48.690;9.562;2024-03-02T10:56:29;25.00;61.70
48019;DHT22;33786;48.690;9.562;2024-03-02T10:59:03;25.70;60.70
48019;DHT22;33786;48.690;9.562;2024-03-02T11:01:34;24.70;62.50
48019;DHT22;33786;48.690;9.562;2024-03-02T11:04:02;25.40;61.60
48019;DHT22;33786;48.690;9.562;2024-03-02T11:06:32;24.50;62.00
48019;DHT22;33786;48.690;9.562;2024-03-02T11:09:05;24.60;61.20
48019;DHT22;33786;48.690;9.562;2024-03-02T11:11:37;23.80;62.50
48019;DHT22;33786;48.690;9.562;2024-03-02T11:14:07;23.60;63.20
48019;DHT22;33786;48.690;9.562;2024-03-02T11:16:38;24.20;64.70
48019;DHT22;33786;48.690;9.562;2024-03-02T11:19:13;24.40;64.40
48019;DHT22;33786;48.690;9.562;2024-03-02T11:21:44;23.00;67.60
48019;DHT22;33786;48.690;9.562;2024-03-02T11:26:51;21.50;69.80
48019;DHT22;33786;48.690;9.562;2024-03-02T11:34:47;21.60;67.90
48019;DHT22;33786;48.690;9.562;2024-03-02T11:37:17;21.50;69.30
48019;DHT22;33786;48.690;9.562;2024-03-02T11:39:45;20.90;67.10
48019;DHT22;33786;48.690;9.562;2024-03-02T11:42:12;20.30;68.70
48019;DHT22;33786;48.690;9.562;2024-03-02T11:44:45;21.20;67.30
48019;DHT22;33786;48.690;9.562;2024-03-02T11:47:15;21.10;66.00
48019;DHT22;33786;48.690;9.562;2024-03-02T11:49:49;20.10;67.20
48019;DHT22;33786;48.690;9.562;2024-03-02T11:52:16;19.70;67.40
48019;DHT22;33786;48.690;9.562;2024-03-02T11:54:46;19.30;69.10
48019;DHT22;33786;48.690;9.562;2024-03-02T11:57:15;19.10;70.10
48019;DHT22;33786;48.690;9.562;2024-03-02T11:59:43;19.90;68.50
48019;DHT22;33786;48.690;9.562;2024-03-02T12:02:18;20.60;68.30
48019;DHT22;33786;48.690;9.562;2024-03-02T12:04:47;20.80;67.10
48019;DHT22;33786;48.690;9.562;2024-03-02T12:07:22;20.20;68.20
48019;DHT22;33786;48.690;9.562;2024-03-02T12:10:00;18.70;68.90
48019;DHT22;33786;48.690;9.562;2024-03-02T12:12:30;18.20;69.10
48019;DHT22;33786;48.690;9.562;2024-03-02T12:14:57;17.60;72.90
48019;DHT22;33786;48.690;9.562;2024-03-02T12:17:23;17.30;70.40
48019;DHT22;33786;48.690;9.562;2024-03-02T12:19:50;16.90;72.60
48019;DHT22;33786;48.690;9.562;2024-03-02T12:22:17;16.80;72.00
48019;DHT22;33786;48.690;9.562;2024-03-02T12:24:44;16.40;72.90
48019;DHT22;33786;48.690;9.562;2024-03-02T12:27:15;16.30;75.70
48019;DHT22;33786;48.690;9.562;2024-03-02T12:29:43;16.40;76.30
48019;DHT22;33786;48.690;9.562;2024-03-02T12:32:10;16.40;74.30
48019;DHT22;33786;48.690;9.562;2024-03-02T12:34:38;16.30;72.70
48019;DHT22;33786;48.690;9.562;2024-03-02T12:37:06;16.30;72.60
48019;DHT22;33786;48.690;9.562;2024-03-02T12:39:33;16.30;73.30
48019;DHT22;33786;48.690;9.562;2024-03-02T12:42:02;16.20;73.60
48019;DHT22;33786;48.690;9.562;2024-03-02T12:44:29;16.30;75.00
48019;DHT22;33786;48.690;9.562;2024-03-02T12:46:56;16.10;73.00
48019;DHT22;33786;48.690;9.562;2024-03-02T12:49:26;16.10;74.70
48019;DHT22;33786;48.690;9.562;2024-03-02T12:51:55;16.00;74.40
48019;DHT22;33786;48.690;9.562;2024-03-02T12:54:24;16.10;73.80
48019;DHT22;33786;48.690;9.562;2024-03-02T12:56:53;16.10;74.00
48019;DHT22;33786;48.690;9.562;2024-03-02T12:59:23;16.10;72.70
48019;DHT22;33786;48.690;9.562;2024-03-02T13:01:53;16.10;72.30
48019;DHT22;33786;48.690;9.562;2024-03-02T13:04:28;16.00;72.50
48019;DHT22;33786;48.690;9.562;2024-03-02T13:06:56;16.10;71.60
48019;DHT22;33786;48.690;9.562;2024-03-02T13:09:24;16.10;69.40
48019;DHT22;33786;48.690;9.562;2024-03-02T13:11:52;16.30;73.50
48019;DHT22;33786;48.690;9.562;2024-03-02T13:14:21;16.20;72.70
48019;DHT22;33786;48.690;9.562;2024-03-02T13:16:50;16.20;72.60
48019;DHT22;33786;48.690;9.562;2024-03-02T13:19:19;16.30;71.30
48019;DHT22;33786;48.690;9.562;2024-03-02T13:21:46;16.20;70.70
48019;DHT22;33786;48.690;9.562;2024-03-02T13:24:13;16.20;69.70
48019;DHT22;33786;48.690;9.562;2024-03-02T13:26:40;16.10;69.80
48019;DHT22;33786;48.690;9.562;2024-03-02T13:29:07;16.10;72.30
48019;DHT22;33786;48.690;9.562;2024-03-02T13:31:34;16.10;70.10
48019;DHT22;33786;48.690;9.562;2024-03-02T13:34:01;16.20;68.10
48019;DHT22;33786;48.690;9.562;2024-03-02T13:36:28;16.20;69.50
48019;DHT22;33786;48.690;9.562;2024-03-02T13:38:55;16.30;69.90
48019;DHT22;33786;48.690;9.562;2024-03-02T13:41:22;16.30;69.50
48019;DHT22;33786;48.690;9.562;2024-03-02T13:43:49;16.10;70.20
48019;DHT22;33786;48.690;9.562;2024-03-02T13:46:18;16.10;69.20
48019;DHT22;33786;48.690;9.562;2024-03-02T13:48:45;16.10;70.20
48019;DHT22;33786;48.690;9.562;2024-03-02T13:51:12;16.20;69.70
48019;DHT22;33786;48.690;9.562;2024-03-02T13:53:39;16.20;70.70
48019;DHT22;33786;48.690;9.562;2024-03-02T13:56:06;16.20;72.40
48019;DHT22;33786;48.690;9.562;2024-03-02T13:58:33;16.00;71.90
48019;DHT22;33786;48.690;9.562;2024-03-02T14:01:00;15.80;70.60
48019;DHT22;33786;48.690;9.562;2024-03-02T14:03:30;15.60;72.80
48019;DHT22;33786;48.690;9.562;2024-03-02T14:05:58;15.60;71.80
48019;DHT22;33786;48.690;9.562;2024-03-02T14:08:24;15.70;69.90
48019;DHT22;33786;48.690;9.562;2024-03-02T14:10:51;15.60;70.90
48019;DHT22;33786;48.690;9.562;2024-03-02T14:13:18;15.50;71.00
48019;DHT22;33786;48.690;9.562;2024-03-02T14:15:45;15.50;70.40
48019;DHT22;33786;48.690;9.562;2024-03-02T14:18:12;15.40;73.20
48019;DHT22;33786;48.690;9.562;2024-03-02T14:20:39;15.30;75.20
48019;DHT22;33786;48.690;9.562;2024-03-02T14:23:08;15.20;74.50
48019;DHT22;33786;48.690;9.562;2024-03-02T14:25:37;15.10;76.10
48019;DHT22;33786;48.690;9.562;2024-03-02T14:28:04;15.10;76.90
48019;DHT22;33786;48.690;9.562;2024-03-02T14:30:34;15.20;78.00
48019;DHT22;33786;48.690;9.562;2024-03-02T14:33:01;15.10;78.70
48019;DHT22;33786;48.690;9.562;2024-03-02T14:35:29;15.00;79.20
48019;DHT22;33786;48.690;9.562;2024-03-02T14:37:56;15.00;78.60
48019;DHT22;33786;48.690;9.562;2024-03-02T14:40:25;14.80;80.50
48019;DHT22;33786;48.690;9.562;2024-03-02T14:42:54;14.80;79.50
48019;DHT22;33786;48.690;9.562;2024-03-02T14:45:21;14.80;79.50
48019;DHT22;33786;48.690;9.562;2024-03-02T14:47:48;14.70;81.50
48019;DHT22;33786;48.690;9.562;2024-03-02T14:50:15;14.70;82.50
48019;DHT22;33786;48.690;9.562;2024-03-02T14:52:44;14.60;81.80
48019;DHT22;33786;48.690;9.562;2024-03-02T14:55:12;14.50;82.20
48019;DHT22;33786;48.690;9.562;2024-03-02T14:57:39;14.50;82.20
48019;DHT22;33786;48.690;9.562;2024-03-02T15:00:06;14.40;82.60
48019;DHT22;33786;48.690;9.562;2024-03-02T15:02:34;14.40;81.50
48019;DHT22;33786;48.690;9.562;2024-03-02T15:05:01;14.40;83.10
48019;DHT22;33786;48.690;9.562;2024-03-02T15:07:29;14.50;84.00
48019;DHT22;33786;48.690;9.562;2024-03-02T15:09:56;14.50;83.30
48019;DHT22;33786;48.690;9.562;2024-03-02T15:12:23;14.50;83.50
48019;DHT22;33786;48.690;9.562;2024-03-02T15:14:50;14.50;84.00
48019;DHT22;33786;48.690;9.562;2024-03-02T15:17:17;14.40;85.70
48019;DHT22;33786;48.690;9.562;2024-03-02T15:19:45;14.40;86.10
48019;DHT22;33786;48.690;9.562;2024-03-02T15:22:12;14.40;87.20
48019;DHT22;33786;48.690;9.562;2024-03-02T15:24:40;14.50;86.90
48019;DHT22;33786;48.690;9.562;2024-03-02T15:27:06;14.60;87.30
48019;DHT22;33786;48.690;9.562;2024-03-02T15:29:35;14.50;87.50
48019;DHT22;33786;48.690;9.562;2024-03-02T15:32:03;14.40;88.00
48019;DHT22;33786;48.690;9.562;2024-03-02T15:34:33;14.40;89.30
48019;DHT22;33786;48.690;9.562;2024-03-02T15:37:01;14.30;89.90
48019;DHT22;33786;48.690;9.562;2024-03-02T15:39:28;14.30;90.20
48019;DHT22;33786;48.690;9.562;2024-03-02T15:41:55;14.20;90.00
48019;DHT22;33786;48.690;9.562;2024-03-02T15:44:22;14.10;90.10
48019;DHT22;33786;48.690;9.562;2024-03-02T15:46:49;14.10;90.70
48019;DHT22;33786;48.690;9.562;2024-03-02T15:49:16;13.90;90.80
48019;DHT22;33786;48.690;9.562;2024-03-02T15:51:46;13.80;91.10
48019;DHT22;33786;48.690;9.562;2024-03-02T15:54:13;13.80;91.40
48019;DHT22;33786;48.690;9.562;2024-03-02T15:56:40;13.80;91.60
48019;DHT22;33786;48.690;9.562;2024-03-02T15:59:07;13.50;91.70
48019;DHT22;33786;48.690;9.562;2024-03-02T16:01:35;13.70;91.80